Pagrindinis puslapis
METAR-TAF:

METAR-TAF

Oro uostai :

Marshall, Aliaska, Jungtinės Amerikos Valstijos

platuma: 61-51-51N, ilguma: 162-01-34W, Aukštis: 31 m

Dabartinis oras

Ataskaita buvo paskelbta 23 minutes, ne 21:02 UTC
Vėjas 13 kt iš Rytų su gūsio iki 22 kt
Temperatūra 6°C
Drėgmė 61%
Slėgis 1002 hPa
Matomumas: 16.1 km
Apsiniaukę ne aukštis 6000 ft

METAR: PADM 212102Z AUTO 10013G22KT 10SM OVC060 06/M01 A2958 RMK AO2 SLP021 T00611006 58017

Laikas: 13:25 (21:25 UTC)


TAF: trūkstamas

Orai ataskaitas ir orų prognozės (METAR, TAF).

turimą stotys yra geltonos ir raudonos taškus žemėlapyje.

Perkelti pele per norėdami pamatyti stoties vardą.

Tada spustelėkite, norėdami matyti oro stebėjimo ir prognozės.

Norėdami pakeisti žemėlapį: spustelėkite ant žalios mygtukų su juodo kryžiaus žemyn,; žalią mygtuką su brūkšneliu, jei norite nutolinti; arba žalių rodyklių gretimoms žemėlapius.


METAR-TAF: